createdAt,value
2018-06-18T00:00:26.814Z,77.79
2018-06-18T00:05:21.290Z,76.74
2018-06-18T00:10:15.776Z,76.61
2018-06-18T00:15:10.220Z,78.28
2018-06-18T00:20:04.690Z,78.66
2018-06-18T00:24:59.101Z,77.03
2018-06-18T00:29:53.512Z,76.98
2018-06-18T00:34:48.033Z,77.87
2018-06-18T00:39:42.488Z,77.73
2018-06-18T00:44:36.927Z,78.30
2018-06-18T00:49:31.324Z,77.99
2018-06-18T00:54:25.768Z,78.05
2018-06-18T00:59:20.199Z,78.79
2018-06-18T01:04:14.608Z,79.64
2018-06-18T01:09:11.275Z,80.14
2018-06-18T01:14:06.703Z,79.17
2018-06-18T01:19:01.120Z,78.71
2018-06-18T01:24:08.629Z,79.34
2018-06-18T01:29:03.169Z,79.48
2018-06-18T01:34:01.088Z,79.14
2018-06-18T01:38:55.516Z,80.43
2018-06-18T01:43:49.925Z,80.56
2018-06-18T01:48:44.357Z,79.73
2018-06-18T01:53:38.796Z,79.11
2018-06-18T01:58:33.205Z,78.91
2018-06-18T02:03:27.625Z,78.80
2018-06-18T02:08:22.038Z,77.43
2018-06-18T02:13:16.429Z,78.33
2018-06-18T02:18:10.850Z,78.38
2018-06-18T02:23:05.332Z,78.76
2018-06-18T02:28:04.982Z,77.71
2018-06-18T02:33:04.557Z,78.21
2018-06-18T02:38:04.093Z,78.08
2018-06-18T02:42:58.525Z,78.00
2018-06-18T02:47:52.935Z,77.33
2018-06-18T02:52:47.337Z,77.78
2018-06-18T02:57:41.941Z,78.00
2018-06-18T03:02:36.336Z,78.32
2018-06-18T03:07:30.742Z,76.53
2018-06-18T03:12:25.206Z,76.34
2018-06-18T03:17:20.195Z,75.48
2018-06-18T03:22:19.848Z,76.10
2018-06-18T03:27:19.242Z,76.67
2018-06-18T03:32:17.029Z,76.41
2018-06-18T03:37:14.792Z,76.68
2018-06-18T03:42:09.268Z,78.03
2018-06-18T03:47:12.697Z,77.93
2018-06-18T03:52:07.112Z,78.38
2018-06-18T03:57:01.525Z,77.44
2018-06-18T04:02:06.179Z,77.64
2018-06-18T04:08:09.332Z,76.87
2018-06-18T04:13:03.572Z,75.64
2018-06-18T04:17:58.000Z,73.30
2018-06-18T04:22:52.402Z,71.84
2018-06-18T04:27:47.157Z,73.75
2018-06-18T04:32:41.560Z,73.41
2018-06-18T04:37:36.116Z,72.78
2018-06-18T04:42:35.634Z,73.97
2018-06-18T04:47:35.233Z,74.66
2018-06-18T04:52:29.675Z,74.55
2018-06-18T04:57:24.147Z,74.02
2018-06-18T05:02:18.565Z,73.03
2018-06-18T05:07:13.005Z,73.25
2018-06-18T05:12:07.480Z,72.62
2018-06-18T05:17:01.905Z,72.21
2018-06-18T05:21:56.332Z,72.18
2018-06-18T05:26:54.173Z,70.13
2018-06-18T05:31:48.576Z,72.03
2018-06-18T05:36:42.997Z,73.08
2018-06-18T05:41:37.591Z,72.06
2018-06-18T05:46:31.989Z,66.80
2018-06-18T05:51:27.401Z,64.16
2018-06-18T05:56:21.796Z,61.08
2018-06-18T06:01:16.202Z,60.37
2018-06-18T06:06:10.689Z,60.15
2018-06-18T06:11:05.175Z,63.42
2018-06-18T06:16:00.164Z,63.22
2018-06-18T06:20:59.544Z,60.03
2018-06-18T06:25:54.241Z,59.11
2018-06-18T06:30:48.676Z,58.24
2018-06-18T06:35:45.128Z,60.99
2018-06-18T06:40:39.753Z,61.71
2018-06-18T06:45:46.151Z,61.01
2018-06-18T06:50:41.628Z,59.71
2018-06-18T06:55:36.263Z,58.08
2018-06-18T07:00:30.725Z,57.77
2018-06-18T07:05:24.863Z,57.20
2018-06-18T07:10:20.042Z,55.20
2018-06-18T07:15:18.953Z,52.41
2018-06-18T07:20:13.491Z,50.46
2018-06-18T07:25:08.000Z,50.31
2018-06-18T07:30:02.641Z,47.84
2018-06-18T07:34:57.216Z,44.90
2018-06-18T07:39:52.806Z,46.34
2018-06-18T07:44:47.766Z,45.38
2018-06-18T07:49:42.887Z,48.53
2018-06-18T07:54:44.395Z,47.62
2018-06-18T07:59:39.509Z,48.54
2018-06-18T08:04:41.299Z,47.06
2018-06-18T08:09:37.557Z,44.88
2018-06-18T08:14:32.556Z,44.46
2018-06-18T08:19:26.989Z,48.39
2018-06-18T08:24:21.417Z,47.42
2018-06-18T08:29:16.950Z,45.37
2018-06-18T08:34:11.357Z,43.31
2018-06-18T08:39:09.416Z,45.27
2018-06-18T08:44:04.944Z,45.81
2018-06-18T08:49:06.986Z,44.91
2018-06-18T08:54:06.745Z,44.43
2018-06-18T08:59:10.416Z,44.42
2018-06-18T09:04:10.948Z,43.45
2018-06-18T09:09:08.389Z,43.81
2018-06-18T09:14:02.828Z,43.91
2018-06-18T09:18:58.968Z,42.69
2018-06-18T09:23:54.937Z,42.64
2018-06-18T09:28:51.960Z,41.76
2018-06-18T09:33:47.278Z,41.00
2018-06-18T09:38:41.941Z,40.83
2018-06-18T09:43:36.681Z,41.54
2018-06-18T09:48:37.225Z,41.83
2018-06-18T09:53:36.872Z,41.79
2018-06-18T10:00:46.479Z,38.35
2018-06-18T10:05:41.302Z,42.39
2018-06-18T10:10:36.123Z,43.02
2018-06-18T10:15:31.012Z,45.37
2018-06-18T10:20:26.818Z,43.68
2018-06-18T10:25:21.364Z,43.74
2018-06-18T10:30:16.213Z,44.19
2018-06-18T10:35:16.146Z,42.23
2018-06-18T10:40:16.604Z,42.90
2018-06-18T10:45:13.279Z,41.45
2018-06-18T10:50:07.961Z,38.91
2018-06-18T10:55:03.396Z,39.55
2018-06-18T10:59:57.955Z,38.55
2018-06-18T11:04:59.201Z,38.25
2018-06-18T11:09:55.935Z,39.41
2018-06-18T11:14:54.967Z,39.97
2018-06-18T11:19:56.199Z,38.13
2018-06-18T11:25:00.901Z,37.36
2018-06-18T11:29:56.926Z,37.33
2018-06-18T11:40:20.621Z,39.06
2018-06-18T11:45:28.757Z,38.79
2018-06-18T11:50:26.355Z,37.90
2018-06-18T11:55:24.184Z,37.68
2018-06-18T12:02:32.629Z,37.77
2018-06-18T12:07:33.995Z,36.29
2018-06-18T12:12:30.796Z,36.36
2018-06-18T12:17:27.576Z,38.99
2018-06-18T12:22:24.414Z,37.31
2018-06-18T12:27:27.577Z,36.84
2018-06-18T12:32:26.779Z,36.61
2018-06-18T12:37:25.735Z,37.14
2018-06-18T12:42:26.698Z,37.51
2018-06-18T12:47:29.106Z,36.71
2018-06-18T12:52:31.411Z,36.29
2018-06-18T12:57:29.097Z,36.40
2018-06-18T13:02:37.740Z,36.35
2018-06-18T13:07:35.454Z,37.51
2018-06-18T13:12:33.565Z,38.33
2018-06-18T13:17:31.472Z,37.67
2018-06-18T13:22:30.330Z,38.69
2018-06-18T13:27:33.940Z,38.42
2018-06-18T13:32:31.795Z,36.83
2018-06-18T13:37:34.304Z,37.61
2018-06-18T13:42:37.981Z,37.27
2018-06-18T13:47:41.228Z,38.08
2018-06-18T13:52:38.060Z,37.39
2018-06-18T13:57:42.575Z,36.62
2018-06-18T14:02:40.668Z,38.06
2018-06-18T14:07:37.767Z,37.36
2018-06-18T14:12:36.761Z,37.44
2018-06-18T14:17:33.746Z,37.14
2018-06-18T14:22:29.886Z,35.96
2018-06-18T14:27:27.694Z,35.73
2018-06-18T14:32:29.870Z,35.62
2018-06-18T14:39:35.705Z,36.41
2018-06-18T14:44:32.183Z,37.54
2018-06-18T14:49:27.922Z,37.28
2018-06-18T14:54:24.361Z,37.93
2018-06-18T15:00:15.936Z,37.19
2018-06-18T15:05:12.323Z,37.81
2018-06-18T15:10:08.383Z,38.72
2018-06-18T15:15:09.851Z,36.97
2018-06-18T15:20:05.456Z,37.53
2018-06-18T15:25:14.042Z,38.69
2018-06-18T15:30:10.137Z,38.47
2018-06-18T15:35:05.887Z,37.79
2018-06-18T15:40:01.446Z,39.19
2018-06-18T15:44:57.360Z,38.06
2018-06-18T15:49:53.318Z,38.79
2018-06-18T15:54:57.326Z,38.29
2018-06-18T15:59:55.623Z,36.91
2018-06-18T16:04:52.564Z,38.45
2018-06-18T16:09:49.298Z,38.60
2018-06-18T16:14:46.168Z,38.54
2018-06-18T16:19:43.446Z,38.79
2018-06-18T16:24:40.210Z,38.31
2018-06-18T16:29:37.343Z,39.77
2018-06-18T16:34:34.211Z,38.00
2018-06-18T16:39:31.082Z,38.91
2018-06-18T16:44:27.854Z,38.57
2018-06-18T16:49:24.836Z,38.72
2018-06-18T16:54:21.927Z,38.86
2018-06-18T16:59:18.660Z,38.59
2018-06-18T17:04:15.936Z,39.13
2018-06-18T17:09:13.411Z,38.68
2018-06-18T17:14:10.285Z,38.62
2018-06-18T17:19:07.080Z,38.87
2018-06-18T17:24:03.959Z,39.63
2018-06-18T17:29:00.787Z,39.62
2018-06-18T17:33:57.591Z,38.84
2018-06-18T17:38:54.424Z,39.66
2018-06-18T17:43:51.367Z,39.73
2018-06-18T17:48:48.156Z,38.67
2018-06-18T17:53:45.011Z,39.46
2018-06-18T17:58:41.786Z,38.94
2018-06-18T18:03:38.589Z,39.86
2018-06-18T18:08:35.245Z,39.32
2018-06-18T18:13:33.484Z,39.81
2018-06-18T18:18:30.288Z,39.93
2018-06-18T18:23:26.341Z,41.08
2018-06-18T18:28:23.127Z,41.74
2018-06-18T18:33:20.104Z,42.35
2018-06-18T18:38:16.802Z,41.37
2018-06-18T18:43:13.749Z,42.89
2018-06-18T18:48:10.565Z,42.63
2018-06-18T18:53:07.710Z,43.90
2018-06-18T18:58:21.165Z,44.99
2018-06-18T19:03:20.196Z,45.52
2018-06-18T19:08:22.325Z,46.03
2018-06-18T19:13:26.240Z,44.73
2018-06-18T19:18:23.010Z,46.41
2018-06-18T19:23:19.803Z,49.56
2018-06-18T19:28:16.492Z,51.83
2018-06-18T19:33:23.890Z,53.57
2018-06-18T19:38:20.847Z,54.22
2018-06-18T19:43:17.720Z,55.41
2018-06-18T19:48:20.495Z,55.63
2018-06-18T19:53:17.288Z,56.52
2018-06-18T19:58:14.147Z,56.87
2018-06-18T20:03:10.874Z,58.05
2018-06-18T20:08:13.503Z,58.41
2018-06-18T20:13:10.177Z,58.73
2018-06-18T20:18:07.033Z,59.12
2018-06-18T20:23:04.837Z,59.21
2018-06-18T20:28:01.629Z,58.22
2018-06-18T20:32:58.267Z,57.94
2018-06-18T20:37:55.238Z,56.65
2018-06-18T20:42:51.427Z,56.30
2018-06-18T20:47:48.472Z,56.64
2018-06-18T20:52:45.675Z,57.96
2018-06-18T20:57:42.563Z,56.98
2018-06-18T21:02:39.265Z,56.55
2018-06-18T21:07:36.671Z,55.00
2018-06-18T21:12:33.670Z,54.67
2018-06-18T21:17:30.530Z,55.54
2018-06-18T21:22:27.229Z,55.04
2018-06-18T21:27:24.136Z,55.30
2018-06-18T21:32:20.883Z,54.66
2018-06-18T21:37:17.689Z,55.79
2018-06-18T21:42:14.328Z,55.20
2018-06-18T21:47:10.369Z,54.54
2018-06-18T21:52:07.204Z,55.19
2018-06-18T21:57:04.053Z,55.67
2018-06-18T22:02:00.775Z,55.94
2018-06-18T22:06:57.584Z,57.48
2018-06-18T22:11:56.749Z,58.60
2018-06-18T22:16:53.698Z,58.73
2018-06-18T22:21:50.556Z,58.46
2018-06-18T22:26:47.543Z,59.85
2018-06-18T22:31:44.202Z,60.86
2018-06-18T22:36:41.015Z,61.71
2018-06-18T22:41:37.713Z,61.24
2018-06-18T22:46:34.538Z,61.06
2018-06-18T22:51:31.260Z,62.62
2018-06-18T22:56:28.225Z,60.77
2018-06-18T23:01:24.937Z,62.02
2018-06-18T23:06:22.027Z,62.14
2018-06-18T23:11:18.788Z,61.19
2018-06-18T23:16:15.555Z,62.60
2018-06-18T23:21:12.229Z,62.62
2018-06-18T23:26:09.182Z,62.67
2018-06-18T23:31:06.022Z,63.89
2018-06-18T23:36:02.930Z,63.40
2018-06-18T23:40:59.698Z,64.59
2018-06-18T23:45:56.559Z,64.21
2018-06-18T23:50:53.222Z,64.09
2018-06-18T23:55:49.982Z,64.05
